Terminal Aerodrome Forecast
Issued by NWS

Home | Current Version | Previous Version | Text Only | Print | Product List | Glossary On
Versions: 1 2 3 4 5 6 7 8 9 10 11 12 13 14 15 16 17 18
000
FTUS42 KMLB 201500 AAA
TAFTIX
TAF AMD
KTIX 201504Z 2015/2112 01014KT P6SM OVC016
     FM201800 36016G24KT P6SM BKN020 OVC035
     FM210100 36015G20KT P6SM SCT035=

USA.gov is the U.S. government's official web portal to all federal, state and local government web resources and services.